Sea Force — WDH4282 — position and weather

sailwx.info

Track history (hours):
 
Tides and Currents Weather Stations Pressure Air Temp Water Temp Dewpoint Dewpoint Depression Visibility Wind Speed Wind Dir Waves Ship Positions

Sea Force

Owner: Port of Long Beach Harbor Department, Long Beach, CA. More information available from US FCC via Universal Licensing System and Coast Guard Vessel Documentation Center.

Last reported at 2018-Jun-22 16:55 UTC. Time now 2018-Jun-25 01:54 UTC.
Position N 33°46' W 118°13'.

Length 25 m; draft 4.6 m.

Type: Port tender. MMSI: 367616090.

Date/timePositionNaut miles runAvg speedWind from/ knotsBaromVisibWave heightAir tempDewpointWater temp
2018-Jun-22 16:55N 33°46' W 118°13'1 3.1
2018-Jun-22 16:31N 33°45' W 118°13'2 3.7
2018-Jun-22 16:00N 33°43' W 118°13'4 9.0
2018-Jun-22 15:31N 33°44' W 118°08'3 6.4
2018-Jun-22 15:01N 33°44' W 118°11'3 5.3
2018-Jun-22 14:30N 33°46' W 118°13'  
2018-Jun-19 20:23N 33°46' W 118°13'1 3.7
2018-Jun-19 20:00N 33°45' W 118°14'1 2.0
2018-Jun-19 19:30N 33°46' W 118°13'0 0.9
2018-Jun-19 18:59N 33°46' W 118°13'0 0.0
2018-Jun-19 18:29N 33°46' W 118°13'0 0.0
2018-Jun-19 17:59N 33°46' W 118°13'0 0.0
2018-Jun-19 17:23N 33°46' W 118°13'0 0.0
2018-Jun-19 16:56N 33°46' W 118°13'0 0.0
2018-Jun-19 16:29N 33°46' W 118°13'0 0.0
2018-Jun-19 15:59N 33°46' W 118°13'0 0.0
2018-Jun-19 15:26N 33°46' W 118°13'0 0.0
2018-Jun-19 14:56N 33°46' W 118°13'0 0.0
2018-Jun-19 14:26N 33°46' W 118°13'0 0.0
2018-Jun-19 13:59N 33°46' W 118°13'0 0.0
2018-Jun-19 13:26N 33°46' W 118°13'0 0.0
2018-Jun-19 12:59N 33°46' W 118°13'0 0.0
2018-Jun-19 12:23N 33°46' W 118°13'0 0.0
2018-Jun-19 11:50N 33°46' W 118°13'0 0.0
2018-Jun-19 11:26N 33°46' W 118°13'0 0.0
2018-Jun-19 10:59N 33°46' W 118°13'0 0.0
2018-Jun-19 10:23N 33°46' W 118°13'0 0.0
2018-Jun-19 09:59N 33°46' W 118°13'0 0.0
2018-Jun-19 09:26N 33°46' W 118°13'0 0.0
2018-Jun-19 08:59N 33°46' W 118°13'0 0.0
2018-Jun-19 08:14N 33°46' W 118°13'0 0.0
2018-Jun-19 07:56N 33°46' W 118°13'0 0.0
2018-Jun-19 07:23N 33°46' W 118°13'0 0.0
2018-Jun-19 06:56N 33°46' W 118°13'0 0.0
2018-Jun-19 06:29N 33°46' W 118°13'0 0.0
2018-Jun-19 05:59N 33°46' W 118°13'0 0.0
2018-Jun-19 05:23N 33°46' W 118°13'0 0.0
2018-Jun-19 04:50N 33°46' W 118°13'0 0.0
2018-Jun-19 04:23N 33°46' W 118°13'0 0.0
2018-Jun-19 03:59N 33°46' W 118°13'0 0.0
2018-Jun-19 03:23N 33°46' W 118°13'0 0.0
2018-Jun-19 02:59N 33°46' W 118°13'0 0.0
2018-Jun-19 02:29N 33°46' W 118°13'0 0.0
2018-Jun-19 01:56N 33°46' W 118°13'0 0.0
2018-Jun-19 01:29N 33°46' W 118°13'0 0.0
2018-Jun-19 00:56N 33°46' W 118°13'0 0.0
2018-Jun-19 00:29N 33°46' W 118°13'0 0.0
2018-Jun-18 23:56N 33°46' W 118°13'0 0.0
2018-Jun-18 23:29N 33°46' W 118°13'0 0.0
2018-Jun-18 22:59N 33°46' W 118°13'0 0.0
2018-Jun-18 22:29N 33°46' W 118°13'0 0.0
2018-Jun-18 21:59N 33°46' W 118°13'0 0.0
2018-Jun-18 21:29N 33°46' W 118°13'0 0.0
2018-Jun-18 20:59N 33°46' W 118°13'0 0.0
2018-Jun-18 20:29N 33°46' W 118°13'0 0.0
2018-Jun-18 19:59N 33°46' W 118°13'0 0.0
2018-Jun-18 19:29N 33°46' W 118°13'0 0.0
2018-Jun-18 18:59N 33°46' W 118°13'0 0.0
2018-Jun-18 18:20N 33°46' W 118°13'0 0.0
2018-Jun-18 17:56N 33°46' W 118°13'0 0.0
2018-Jun-18 17:29N 33°46' W 118°13'0 0.0
2018-Jun-18 16:56N 33°46' W 118°13'0 0.0
2018-Jun-18 16:29N 33°46' W 118°13'0 0.0
2018-Jun-18 15:59N 33°46' W 118°13'0 0.0
2018-Jun-18 15:08N 33°46' W 118°13'0 0.0
2018-Jun-18 14:56N 33°46' W 118°13'0 0.0
2018-Jun-18 14:26N 33°46' W 118°13'0 0.0
2018-Jun-18 13:59N 33°46' W 118°13'0 0.0
2018-Jun-18 13:29N 33°46' W 118°13'0 0.0
2018-Jun-18 12:59N 33°46' W 118°13'0 0.0
2018-Jun-18 12:29N 33°46' W 118°13'0 0.0
2018-Jun-18 11:50N 33°46' W 118°13'0 0.0
2018-Jun-18 11:23N 33°46' W 118°13'0 0.0
2018-Jun-18 10:59N 33°46' W 118°13'0 0.0
2018-Jun-18 10:23N 33°46' W 118°13'0 0.0
2018-Jun-18 09:44N 33°46' W 118°13'0 0.0
2018-Jun-18 09:29N 33°46' W 118°13'0 0.0
2018-Jun-18 08:50N 33°46' W 118°13'0 0.0
2018-Jun-18 08:29N 33°46' W 118°13'0 0.0
2018-Jun-18 07:59N 33°46' W 118°13'0 0.0
2018-Jun-18 07:23N 33°46' W 118°13'0 0.0
2018-Jun-18 06:50N 33°46' W 118°13'0 0.0
2018-Jun-18 06:17N 33°46' W 118°13'0 0.0
2018-Jun-18 05:59N 33°46' W 118°13'0 0.0
2018-Jun-18 05:20N 33°46' W 118°13'0 0.0
2018-Jun-18 04:59N 33°46' W 118°13'0 0.0
2018-Jun-18 04:29N 33°46' W 118°13'0 0.0
2018-Jun-18 03:59N 33°46' W 118°13'0 0.0
2018-Jun-18 03:29N 33°46' W 118°13'0 0.0
2018-Jun-18 02:59N 33°46' W 118°13'0 0.0
2018-Jun-18 02:26N 33°46' W 118°13'0 0.0
2018-Jun-18 01:59N 33°46' W 118°13'0 0.0
2018-Jun-18 01:20N 33°46' W 118°13'0 0.0
2018-Jun-18 00:59N 33°46' W 118°13'0 0.0
2018-Jun-18 00:26N 33°46' W 118°13'0 0.0
2018-Jun-17 23:59N 33°46' W 118°13'0 0.0
2018-Jun-17 23:29N 33°46' W 118°13'0 0.0
2018-Jun-17 22:59N 33°46' W 118°13'0 0.0
2018-Jun-17 22:29N 33°46' W 118°13'0 0.0
2018-Jun-17 21:59N 33°46' W 118°13'0 0.0
2018-Jun-17 21:29N 33°46' W 118°13'0 0.0
2018-Jun-17 20:59N 33°46' W 118°13'0 0.0
2018-Jun-17 20:29N 33°46' W 118°13'0 0.0
2018-Jun-17 19:56N 33°46' W 118°13'0 0.0
2018-Jun-17 19:26N 33°46' W 118°13'0 0.0
2018-Jun-17 18:56N 33°46' W 118°13'0 0.0
2018-Jun-17 18:26N 33°46' W 118°13'0 0.0
2018-Jun-17 17:56N 33°46' W 118°13'0 0.0
2018-Jun-17 17:29N 33°46' W 118°13'0 0.0
2018-Jun-17 16:59N 33°46' W 118°13'0 0.0
2018-Jun-17 16:26N 33°46' W 118°13'0 0.0
2018-Jun-17 15:56N 33°46' W 118°13'0 0.0
2018-Jun-17 15:29N 33°46' W 118°13'0 0.0
2018-Jun-17 14:59N 33°46' W 118°13'0 0.0
2018-Jun-17 14:26N 33°46' W 118°13'0 0.0
2018-Jun-17 13:56N 33°46' W 118°13'0 0.0
2018-Jun-17 13:26N 33°46' W 118°13'0 0.0
2018-Jun-17 12:59N 33°46' W 118°13'0 0.0
2018-Jun-17 12:26N 33°46' W 118°13'0 0.0
2018-Jun-17 11:59N 33°46' W 118°13'0 0.0
2018-Jun-17 11:29N 33°46' W 118°13'0 0.0
2018-Jun-17 10:56N 33°46' W 118°13'0 0.0
2018-Jun-17 10:29N 33°46' W 118°13'0 0.0
2018-Jun-17 09:59N 33°46' W 118°13'0 0.0
2018-Jun-17 09:29N 33°46' W 118°13'0 0.0
2018-Jun-17 08:56N 33°46' W 118°13'0 0.0
2018-Jun-17 08:26N 33°46' W 118°13'0 0.0
2018-Jun-17 07:56N 33°46' W 118°13'0 0.0
2018-Jun-17 07:26N 33°46' W 118°13'0 0.0
2018-Jun-17 06:59N 33°46' W 118°13'0 0.0
2018-Jun-17 06:29N 33°46' W 118°13'0 0.0
2018-Jun-17 05:59N 33°46' W 118°13'0 0.0
2018-Jun-17 05:29N 33°46' W 118°13'0 0.0
2018-Jun-17 04:56N 33°46' W 118°13'0 0.0
2018-Jun-17 04:23N 33°46' W 118°13'0 0.0
2018-Jun-17 03:56N 33°46' W 118°13'0 0.0
2018-Jun-17 03:08N 33°46' W 118°13'0 0.0
2018-Jun-17 02:56N 33°46' W 118°13'0 0.0
2018-Jun-17 02:29N 33°46' W 118°13'0 0.0
2018-Jun-17 01:59N 33°46' W 118°13'0 0.0
2018-Jun-17 01:29N 33°46' W 118°13'0 0.0
2018-Jun-17 00:59N 33°46' W 118°13'0 0.0
2018-Jun-17 00:26N 33°46' W 118°13'0 0.0
2018-Jun-16 23:56N 33°46' W 118°13'0 0.0
2018-Jun-16 23:29N 33°46' W 118°13'0 0.0
2018-Jun-16 22:59N 33°46' W 118°13'0 0.0
2018-Jun-16 22:29N 33°46' W 118°13'0 0.0
2018-Jun-16 21:56N 33°46' W 118°13'0 0.0
2018-Jun-16 21:29N 33°46' W 118°13'0 0.0
2018-Jun-16 20:59N 33°46' W 118°13'0 0.0
2018-Jun-16 20:26N 33°46' W 118°13'0 0.0
2018-Jun-16 19:59N 33°46' W 118°13'0 0.0
2018-Jun-16 19:29N 33°46' W 118°13'0 0.0
2018-Jun-16 18:56N 33°46' W 118°13'0 0.0
2018-Jun-16 18:26N 33°46' W 118°13'0 0.0
2018-Jun-16 17:59N 33°46' W 118°13'0 0.0
2018-Jun-16 17:29N 33°46' W 118°13'0 0.0
2018-Jun-16 16:56N 33°46' W 118°13'0 0.0
2018-Jun-16 16:26N 33°46' W 118°13'0 0.1
2018-Jun-16 15:56N 33°46' W 118°13'0 0.1
2018-Jun-16 15:29N 33°46' W 118°13'0 0.0
2018-Jun-16 14:56N 33°46' W 118°13'0 0.0
2018-Jun-16 14:26N 33°46' W 118°13'0 0.0
2018-Jun-16 13:56N 33°46' W 118°13'0 0.0
2018-Jun-16 13:20N 33°46' W 118°13'0 0.0
2018-Jun-16 12:56N 33°46' W 118°13'0 0.0
2018-Jun-16 12:23N 33°46' W 118°13'0 0.0
2018-Jun-16 11:59N 33°46' W 118°13'0 0.0
2018-Jun-16 11:26N 33°46' W 118°13'0 0.0
2018-Jun-16 10:56N 33°46' W 118°13'0 0.0
2018-Jun-16 10:20N 33°46' W 118°13'0 0.0
2018-Jun-16 09:59N 33°46' W 118°13'0 0.0
2018-Jun-16 09:29N 33°46' W 118°13'0 0.0
2018-Jun-16 08:59N 33°46' W 118°13'0 0.0
2018-Jun-16 08:08N 33°46' W 118°13'0 0.0
2018-Jun-16 07:59N 33°46' W 118°13'0 0.0
2018-Jun-16 07:14N 33°46' W 118°13'0 0.0
2018-Jun-16 06:47N 33°46' W 118°13'0 0.0
2018-Jun-16 06:29N 33°46' W 118°13'0 0.0
2018-Jun-16 05:59N 33°46' W 118°13'0 0.0
2018-Jun-16 05:26N 33°46' W 118°13'0 0.0
2018-Jun-16 04:44N 33°46' W 118°13'0 0.0
2018-Jun-16 04:23N 33°46' W 118°13'0 0.0
2018-Jun-16 03:59N 33°46' W 118°13'0 0.0
2018-Jun-16 03:29N 33°46' W 118°13'0 0.0
2018-Jun-16 02:59N 33°46' W 118°13'0 0.0
2018-Jun-16 02:29N 33°46' W 118°13'0 0.0
2018-Jun-16 01:59N 33°46' W 118°13'0 0.0
2018-Jun-16 01:29N 33°46' W 118°13'0 0.0
2018-Jun-16 00:59N 33°46' W 118°13'0 0.0
2018-Jun-16 00:29N 33°46' W 118°13'0 0.0
2018-Jun-15 23:56N 33°46' W 118°13'0 0.0
2018-Jun-15 23:26N 33°46' W 118°13'0 0.0
2018-Jun-15 22:59N 33°46' W 118°13'0 0.0
2018-Jun-15 22:29N 33°46' W 118°13'0 0.0
2018-Jun-15 21:59N 33°46' W 118°13'0 0.0
2018-Jun-15 21:29N 33°46' W 118°13'0 0.0
2018-Jun-15 20:59N 33°46' W 118°13'0 0.0
2018-Jun-15 20:29N 33°46' W 118°13'0 0.0
2018-Jun-15 19:56N 33°46' W 118°13'0 0.0
2018-Jun-15 19:29N 33°46' W 118°13'0 0.0
2018-Jun-15 18:59N 33°46' W 118°13'0 0.0
2018-Jun-15 18:29N 33°46' W 118°13'0 0.0
2018-Jun-15 17:47N 33°46' W 118°13'0 0.0
2018-Jun-15 17:29N 33°46' W 118°13'0 0.0
2018-Jun-15 16:59N 33°46' W 118°13'0 0.0
2018-Jun-15 16:29N 33°46' W 118°13'0 0.0
2018-Jun-15 15:50N 33°46' W 118°13'0 0.0
2018-Jun-15 15:23N 33°46' W 118°13'0 0.0
2018-Jun-15 14:56N 33°46' W 118°13'0 0.0
2018-Jun-15 14:20N 33°46' W 118°13'0 0.0
2018-Jun-15 13:59N 33°46' W 118°13'0 0.0
2018-Jun-15 13:25N 33°46' W 118°13'0 0.0
2018-Jun-15 12:59N 33°46' W 118°13'0 0.0
2018-Jun-15 12:26N 33°46' W 118°13'0 0.0
2018-Jun-15 11:55N 33°46' W 118°13'0 0.0
2018-Jun-15 11:23N 33°46' W 118°13'0 0.0
2018-Jun-15 10:56N 33°46' W 118°13'0 0.0
2018-Jun-15 10:29N 33°46' W 118°13'0 0.0
2018-Jun-15 09:59N 33°46' W 118°13'0 0.0
2018-Jun-15 09:29N 33°46' W 118°13'0 0.0
2018-Jun-15 08:53N 33°46' W 118°13'0 0.0
2018-Jun-15 08:29N 33°46' W 118°13'0 0.0
2018-Jun-15 07:59N 33°46' W 118°13'0 0.0
2018-Jun-15 07:23N 33°46' W 118°13'0 0.0
2018-Jun-15 06:55N 33°46' W 118°13'0 0.0
2018-Jun-15 06:28N 33°46' W 118°13'0 0.0
2018-Jun-15 05:59N 33°46' W 118°13'0 0.0
2018-Jun-15 05:29N 33°46' W 118°13'0 0.0
2018-Jun-15 04:59N 33°46' W 118°13'0 0.0
2018-Jun-15 04:23N 33°46' W 118°13'0 0.0
2018-Jun-15 03:59N 33°46' W 118°13'0 0.0
2018-Jun-15 03:28N 33°46' W 118°13'0 0.0
2018-Jun-15 02:58N 33°46' W 118°13'0 0.0
2018-Jun-15 02:28N 33°46' W 118°13'0 0.0
2018-Jun-15 01:58N 33°46' W 118°13'0 0.0
2018-Jun-15 01:28N 33°46' W 118°13'0 0.0
2018-Jun-15 00:58N 33°46' W 118°13'0 0.0
2018-Jun-15 00:29N 33°46' W 118°13'0 0.0
2018-Jun-14 23:58N 33°46' W 118°13'0 0.0
2018-Jun-14 23:29N 33°46' W 118°13'0 0.0
2018-Jun-14 22:59N 33°46' W 118°13'0 0.0
2018-Jun-14 22:26N 33°46' W 118°13'0 0.0
2018-Jun-14 21:58N 33°46' W 118°13'0 0.1
2018-Jun-14 21:25N 33°46' W 118°13'0 0.1
2018-Jun-14 20:58N 33°46' W 118°13'0 0.0
2018-Jun-14 20:28N 33°46' W 118°13'0 0.0
2018-Jun-14 19:58N 33°46' W 118°13'0 0.0
2018-Jun-14 19:28N 33°46' W 118°13'0 0.0
2018-Jun-14 18:59N 33°46' W 118°13'0 0.0
2018-Jun-14 18:28N 33°46' W 118°13'0 0.0
2018-Jun-14 17:58N 33°46' W 118°13'0 0.0
2018-Jun-14 17:29N 33°46' W 118°13'0 0.0
2018-Jun-14 16:55N 33°46' W 118°13'0 0.0
2018-Jun-14 16:25N 33°46' W 118°13'0 0.0
2018-Jun-14 15:58N 33°46' W 118°13'0 0.0
2018-Jun-14 15:19N 33°46' W 118°13'0 0.0
2018-Jun-14 14:55N 33°46' W 118°13'0 0.0
2018-Jun-14 14:28N 33°46' W 118°13'0 0.0
2018-Jun-14 13:58N 33°46' W 118°13'0 0.0
2018-Jun-14 13:25N 33°46' W 118°13'0 0.0
2018-Jun-14 12:58N 33°46' W 118°13'0 0.0
2018-Jun-14 12:29N 33°46' W 118°13'0 0.0
2018-Jun-14 11:52N 33°46' W 118°13'0 0.0
2018-Jun-14 11:28N 33°46' W 118°13'0 0.0
2018-Jun-14 10:55N 33°46' W 118°13'0 0.0
2018-Jun-14 10:22N 33°46' W 118°13'0 0.0
2018-Jun-14 09:43N 33°46' W 118°13'0 0.0
2018-Jun-14 09:28N 33°46' W 118°13'0 0.0
2018-Jun-14 08:58N 33°46' W 118°13'0 0.0
2018-Jun-14 08:10N 33°46' W 118°13'0 0.0
2018-Jun-14 07:49N 33°46' W 118°13'0 0.0
2018-Jun-14 07:22N 33°46' W 118°13'0 0.0
2018-Jun-14 06:58N 33°46' W 118°13'0 0.0
2018-Jun-14 06:28N 33°46' W 118°13'0 0.0
2018-Jun-14 05:58N 33°46' W 118°13'0 0.0
2018-Jun-14 05:28N 33°46' W 118°13'0 0.0
2018-Jun-14 04:55N 33°46' W 118°13'0 0.0
2018-Jun-14 04:25N 33°46' W 118°13'0 0.0
2018-Jun-14 03:58N 33°46' W 118°13'0 0.0
2018-Jun-14 03:22N 33°46' W 118°13'0 0.0
2018-Jun-14 02:58N 33°46' W 118°13'0 0.0
2018-Jun-14 02:28N 33°46' W 118°13'0 0.0
2018-Jun-14 01:55N 33°46' W 118°13'0 0.0
2018-Jun-14 01:16N 33°46' W 118°13'0 0.0
2018-Jun-14 00:58N 33°46' W 118°13'0 0.0
2018-Jun-14 00:28N 33°46' W 118°13'0 0.0
2018-Jun-13 23:58N 33°46' W 118°13'0 0.0
2018-Jun-13 23:16N 33°46' W 118°13'0 0.0
2018-Jun-13 22:58N 33°46' W 118°13'0 0.0
2018-Jun-13 22:22N 33°46' W 118°13'0 0.0
2018-Jun-13 21:55N 33°46' W 118°13'0 0.0
2018-Jun-13 21:22N 33°46' W 118°13'0 0.0
2018-Jun-13 20:58N 33°46' W 118°13'0 0.0
2018-Jun-13 20:28N 33°46' W 118°13'0 0.0
2018-Jun-13 19:58N 33°46' W 118°13'0 0.0
2018-Jun-13 19:16N 33°46' W 118°13'0 0.0
2018-Jun-13 18:58N 33°46' W 118°13'1 1.3
2018-Jun-13 18:30N 33°46' W 118°13'1 2.0
2018-Jun-13 17:58N 33°45' W 118°13'0 0.0
2018-Jun-13 17:25N 33°45' W 118°13'0 0.0
2018-Jun-13 16:55N 33°45' W 118°13'0 0.0
2018-Jun-13 16:28N 33°45' W 118°13'0 0.0
2018-Jun-13 15:58N 33°45' W 118°13'0 0.4
2018-Jun-13 15:30N 33°45' W 118°13'2 3.3
2018-Jun-13 15:00N 33°46' W 118°13'0 0.0
2018-Jun-12 18:54N 33°46' W 118°13'2 4.6
2018-Jun-12 18:30N 33°44' W 118°12'0 0.6
2018-Jun-12 17:48N 33°45' W 118°13'0 0.0
2018-Jun-12 17:30N 33°45' W 118°13'0 0.0
2018-Jun-12 16:57N 33°45' W 118°13'  
Track history (hours):
 
Tides and Currents Weather Stations Pressure Air Temp Water Temp Dewpoint Dewpoint Depression Visibility Wind Speed Wind Dir Waves Ship Positions

Sea Force

Owner: Port of Long Beach Harbor Department, Long Beach, CA. More information available from US FCC via Universal Licensing System and Coast Guard Vessel Documentation Center.

Last reported at 2018-Jun-22 16:55 UTC. Time now 2018-Jun-25 01:54 UTC.
Position N 33°46' W 118°13'.

Length 25 m; draft 4.6 m.

Type: Port tender. MMSI: 367616090.

Date/timePositionNaut miles runAvg speedWind from/ knotsBaromVisibWave heightAir tempDewpointWater temp
2018-Jun-22 16:55N 33°46' W 118°13'1 3.1
2018-Jun-22 16:31N 33°45' W 118°13'2 3.7
2018-Jun-22 16:00N 33°43' W 118°13'4 9.0
2018-Jun-22 15:31N 33°44' W 118°08'3 6.4
2018-Jun-22 15:01N 33°44' W 118°11'3 5.3
2018-Jun-22 14:30N 33°46' W 118°13'  
2018-Jun-19 20:23N 33°46' W 118°13'1 3.7
2018-Jun-19 20:00N 33°45' W 118°14'1 2.0
2018-Jun-19 19:30N 33°46' W 118°13'0 0.9
2018-Jun-19 18:59N 33°46' W 118°13'0 0.0
2018-Jun-19 18:29N 33°46' W 118°13'0 0.0
2018-Jun-19 17:59N 33°46' W 118°13'0 0.0
2018-Jun-19 17:23N 33°46' W 118°13'0 0.0
2018-Jun-19 16:56N 33°46' W 118°13'0 0.0
2018-Jun-19 16:29N 33°46' W 118°13'0 0.0
2018-Jun-19 15:59N 33°46' W 118°13'0 0.0
2018-Jun-19 15:26N 33°46' W 118°13'0 0.0
2018-Jun-19 14:56N 33°46' W 118°13'0 0.0
2018-Jun-19 14:26N 33°46' W 118°13'0 0.0
2018-Jun-19 13:59N 33°46' W 118°13'0 0.0
2018-Jun-19 13:26N 33°46' W 118°13'0 0.0
2018-Jun-19 12:59N 33°46' W 118°13'0 0.0
2018-Jun-19 12:23N 33°46' W 118°13'0 0.0
2018-Jun-19 11:50N 33°46' W 118°13'0 0.0
2018-Jun-19 11:26N 33°46' W 118°13'0 0.0
2018-Jun-19 10:59N 33°46' W 118°13'0 0.0
2018-Jun-19 10:23N 33°46' W 118°13'0 0.0
2018-Jun-19 09:59N 33°46' W 118°13'0 0.0
2018-Jun-19 09:26N 33°46' W 118°13'0 0.0
2018-Jun-19 08:59N 33°46' W 118°13'0 0.0
2018-Jun-19 08:14N 33°46' W 118°13'0 0.0
2018-Jun-19 07:56N 33°46' W 118°13'0 0.0
2018-Jun-19 07:23N 33°46' W 118°13'0 0.0
2018-Jun-19 06:56N 33°46' W 118°13'0 0.0
2018-Jun-19 06:29N 33°46' W 118°13'0 0.0
2018-Jun-19 05:59N 33°46' W 118°13'0 0.0
2018-Jun-19 05:23N 33°46' W 118°13'0 0.0
2018-Jun-19 04:50N 33°46' W 118°13'0 0.0
2018-Jun-19 04:23N 33°46' W 118°13'0 0.0
2018-Jun-19 03:59N 33°46' W 118°13'0 0.0
2018-Jun-19 03:23N 33°46' W 118°13'0 0.0
2018-Jun-19 02:59N 33°46' W 118°13'0 0.0
2018-Jun-19 02:29N 33°46' W 118°13'0 0.0
2018-Jun-19 01:56N 33°46' W 118°13'0 0.0
2018-Jun-19 01:29N 33°46' W 118°13'0 0.0
2018-Jun-19 00:56N 33°46' W 118°13'0 0.0
2018-Jun-19 00:29N 33°46' W 118°13'0 0.0
2018-Jun-18 23:56N 33°46' W 118°13'0 0.0
2018-Jun-18 23:29N 33°46' W 118°13'0 0.0
2018-Jun-18 22:59N 33°46' W 118°13'0 0.0
2018-Jun-18 22:29N 33°46' W 118°13'0 0.0
2018-Jun-18 21:59N 33°46' W 118°13'0 0.0
2018-Jun-18 21:29N 33°46' W 118°13'0 0.0
2018-Jun-18 20:59N 33°46' W 118°13'0 0.0
2018-Jun-18 20:29N 33°46' W 118°13'0 0.0
2018-Jun-18 19:59N 33°46' W 118°13'0 0.0
2018-Jun-18 19:29N 33°46' W 118°13'0 0.0
2018-Jun-18 18:59N 33°46' W 118°13'0 0.0
2018-Jun-18 18:20N 33°46' W 118°13'0 0.0
2018-Jun-18 17:56N 33°46' W 118°13'0 0.0
2018-Jun-18 17:29N 33°46' W 118°13'0 0.0
2018-Jun-18 16:56N 33°46' W 118°13'0 0.0
2018-Jun-18 16:29N 33°46' W 118°13'0 0.0
2018-Jun-18 15:59N 33°46' W 118°13'0 0.0
2018-Jun-18 15:08N 33°46' W 118°13'0 0.0
2018-Jun-18 14:56N 33°46' W 118°13'0 0.0
2018-Jun-18 14:26N 33°46' W 118°13'0 0.0
2018-Jun-18 13:59N 33°46' W 118°13'0 0.0
2018-Jun-18 13:29N 33°46' W 118°13'0 0.0
2018-Jun-18 12:59N 33°46' W 118°13'0 0.0
2018-Jun-18 12:29N 33°46' W 118°13'0 0.0
2018-Jun-18 11:50N 33°46' W 118°13'0 0.0
2018-Jun-18 11:23N 33°46' W 118°13'0 0.0
2018-Jun-18 10:59N 33°46' W 118°13'0 0.0
2018-Jun-18 10:23N 33°46' W 118°13'0 0.0
2018-Jun-18 09:44N 33°46' W 118°13'0 0.0
2018-Jun-18 09:29N 33°46' W 118°13'0 0.0
2018-Jun-18 08:50N 33°46' W 118°13'0 0.0
2018-Jun-18 08:29N 33°46' W 118°13'0 0.0
2018-Jun-18 07:59N 33°46' W 118°13'0 0.0
2018-Jun-18 07:23N 33°46' W 118°13'0 0.0
2018-Jun-18 06:50N 33°46' W 118°13'0 0.0
2018-Jun-18 06:17N 33°46' W 118°13'0 0.0
2018-Jun-18 05:59N 33°46' W 118°13'0 0.0
2018-Jun-18 05:20N 33°46' W 118°13'0 0.0
2018-Jun-18 04:59N 33°46' W 118°13'0 0.0
2018-Jun-18 04:29N 33°46' W 118°13'0 0.0
2018-Jun-18 03:59N 33°46' W 118°13'0 0.0
2018-Jun-18 03:29N 33°46' W 118°13'0 0.0
2018-Jun-18 02:59N 33°46' W 118°13'0 0.0
2018-Jun-18 02:26N 33°46' W 118°13'0 0.0
2018-Jun-18 01:59N 33°46' W 118°13'0 0.0
2018-Jun-18 01:20N 33°46' W 118°13'0 0.0
2018-Jun-18 00:59N 33°46' W 118°13'0 0.0
2018-Jun-18 00:26N 33°46' W 118°13'0 0.0
2018-Jun-17 23:59N 33°46' W 118°13'0 0.0
2018-Jun-17 23:29N 33°46' W 118°13'0 0.0
2018-Jun-17 22:59N 33°46' W 118°13'0 0.0
2018-Jun-17 22:29N 33°46' W 118°13'0 0.0
2018-Jun-17 21:59N 33°46' W 118°13'0 0.0
2018-Jun-17 21:29N 33°46' W 118°13'0 0.0
2018-Jun-17 20:59N 33°46' W 118°13'0 0.0
2018-Jun-17 20:29N 33°46' W 118°13'0 0.0
2018-Jun-17 19:56N 33°46' W 118°13'0 0.0
2018-Jun-17 19:26N 33°46' W 118°13'0 0.0
2018-Jun-17 18:56N 33°46' W 118°13'0 0.0
2018-Jun-17 18:26N 33°46' W 118°13'0 0.0
2018-Jun-17 17:56N 33°46' W 118°13'0 0.0
2018-Jun-17 17:29N 33°46' W 118°13'0 0.0
2018-Jun-17 16:59N 33°46' W 118°13'0 0.0
2018-Jun-17 16:26N 33°46' W 118°13'0 0.0
2018-Jun-17 15:56N 33°46' W 118°13'0 0.0
2018-Jun-17 15:29N 33°46' W 118°13'0 0.0
2018-Jun-17 14:59N 33°46' W 118°13'0 0.0
2018-Jun-17 14:26N 33°46' W 118°13'0 0.0
2018-Jun-17 13:56N 33°46' W 118°13'0 0.0
2018-Jun-17 13:26N 33°46' W 118°13'0 0.0
2018-Jun-17 12:59N 33°46' W 118°13'0 0.0
2018-Jun-17 12:26N 33°46' W 118°13'0 0.0
2018-Jun-17 11:59N 33°46' W 118°13'0 0.0
2018-Jun-17 11:29N 33°46' W 118°13'0 0.0
2018-Jun-17 10:56N 33°46' W 118°13'0 0.0
2018-Jun-17 10:29N 33°46' W 118°13'0 0.0
2018-Jun-17 09:59N 33°46' W 118°13'0 0.0
2018-Jun-17 09:29N 33°46' W 118°13'0 0.0
2018-Jun-17 08:56N 33°46' W 118°13'0 0.0
2018-Jun-17 08:26N 33°46' W 118°13'0 0.0
2018-Jun-17 07:56N 33°46' W 118°13'0 0.0
2018-Jun-17 07:26N 33°46' W 118°13'0 0.0
2018-Jun-17 06:59N 33°46' W 118°13'0 0.0
2018-Jun-17 06:29N 33°46' W 118°13'0 0.0
2018-Jun-17 05:59N 33°46' W 118°13'0 0.0
2018-Jun-17 05:29N 33°46' W 118°13'0 0.0
2018-Jun-17 04:56N 33°46' W 118°13'0 0.0
2018-Jun-17 04:23N 33°46' W 118°13'0 0.0
2018-Jun-17 03:56N 33°46' W 118°13'0 0.0
2018-Jun-17 03:08N 33°46' W 118°13'0 0.0
2018-Jun-17 02:56N 33°46' W 118°13'0 0.0
2018-Jun-17 02:29N 33°46' W 118°13'0 0.0
2018-Jun-17 01:59N 33°46' W 118°13'0 0.0
2018-Jun-17 01:29N 33°46' W 118°13'0 0.0
2018-Jun-17 00:59N 33°46' W 118°13'0 0.0
2018-Jun-17 00:26N 33°46' W 118°13'0 0.0
2018-Jun-16 23:56N 33°46' W 118°13'0 0.0
2018-Jun-16 23:29N 33°46' W 118°13'0 0.0
2018-Jun-16 22:59N 33°46' W 118°13'0 0.0
2018-Jun-16 22:29N 33°46' W 118°13'0 0.0
2018-Jun-16 21:56N 33°46' W 118°13'0 0.0
2018-Jun-16 21:29N 33°46' W 118°13'0 0.0
2018-Jun-16 20:59N 33°46' W 118°13'0 0.0
2018-Jun-16 20:26N 33°46' W 118°13'0 0.0
2018-Jun-16 19:59N 33°46' W 118°13'0 0.0
2018-Jun-16 19:29N 33°46' W 118°13'0 0.0
2018-Jun-16 18:56N 33°46' W 118°13'0 0.0
2018-Jun-16 18:26N 33°46' W 118°13'0 0.0
2018-Jun-16 17:59N 33°46' W 118°13'0 0.0
2018-Jun-16 17:29N 33°46' W 118°13'0 0.0
2018-Jun-16 16:56N 33°46' W 118°13'0 0.0
2018-Jun-16 16:26N 33°46' W 118°13'0 0.1
2018-Jun-16 15:56N 33°46' W 118°13'0 0.1
2018-Jun-16 15:29N 33°46' W 118°13'0 0.0
2018-Jun-16 14:56N 33°46' W 118°13'0 0.0
2018-Jun-16 14:26N 33°46' W 118°13'0 0.0
2018-Jun-16 13:56N 33°46' W 118°13'0 0.0
2018-Jun-16 13:20N 33°46' W 118°13'0 0.0
2018-Jun-16 12:56N 33°46' W 118°13'0 0.0
2018-Jun-16 12:23N 33°46' W 118°13'0 0.0
2018-Jun-16 11:59N 33°46' W 118°13'0 0.0
2018-Jun-16 11:26N 33°46' W 118°13'0 0.0
2018-Jun-16 10:56N 33°46' W 118°13'0 0.0
2018-Jun-16 10:20N 33°46' W 118°13'0 0.0
2018-Jun-16 09:59N 33°46' W 118°13'0 0.0
2018-Jun-16 09:29N 33°46' W 118°13'0 0.0
2018-Jun-16 08:59N 33°46' W 118°13'0 0.0
2018-Jun-16 08:08N 33°46' W 118°13'0 0.0
2018-Jun-16 07:59N 33°46' W 118°13'0 0.0
2018-Jun-16 07:14N 33°46' W 118°13'0 0.0
2018-Jun-16 06:47N 33°46' W 118°13'0 0.0
2018-Jun-16 06:29N 33°46' W 118°13'0 0.0
2018-Jun-16 05:59N 33°46' W 118°13'0 0.0
2018-Jun-16 05:26N 33°46' W 118°13'0 0.0
2018-Jun-16 04:44N 33°46' W 118°13'0 0.0
2018-Jun-16 04:23N 33°46' W 118°13'0 0.0
2018-Jun-16 03:59N 33°46' W 118°13'0 0.0
2018-Jun-16 03:29N 33°46' W 118°13'0 0.0
2018-Jun-16 02:59N 33°46' W 118°13'0 0.0
2018-Jun-16 02:29N 33°46' W 118°13'0 0.0
2018-Jun-16 01:59N 33°46' W 118°13'0 0.0
2018-Jun-16 01:29N 33°46' W 118°13'0 0.0
2018-Jun-16 00:59N 33°46' W 118°13'0 0.0
2018-Jun-16 00:29N 33°46' W 118°13'0 0.0
2018-Jun-15 23:56N 33°46' W 118°13'0 0.0
2018-Jun-15 23:26N 33°46' W 118°13'0 0.0
2018-Jun-15 22:59N 33°46' W 118°13'0 0.0
2018-Jun-15 22:29N 33°46' W 118°13'0 0.0
2018-Jun-15 21:59N 33°46' W 118°13'0 0.0
2018-Jun-15 21:29N 33°46' W 118°13'0 0.0
2018-Jun-15 20:59N 33°46' W 118°13'0 0.0
2018-Jun-15 20:29N 33°46' W 118°13'0 0.0
2018-Jun-15 19:56N 33°46' W 118°13'0 0.0
2018-Jun-15 19:29N 33°46' W 118°13'0 0.0
2018-Jun-15 18:59N 33°46' W 118°13'0 0.0
2018-Jun-15 18:29N 33°46' W 118°13'0 0.0
2018-Jun-15 17:47N 33°46' W 118°13'0 0.0
2018-Jun-15 17:29N 33°46' W 118°13'0 0.0
2018-Jun-15 16:59N 33°46' W 118°13'0 0.0
2018-Jun-15 16:29N 33°46' W 118°13'0 0.0
2018-Jun-15 15:50N 33°46' W 118°13'0 0.0
2018-Jun-15 15:23N 33°46' W 118°13'0 0.0
2018-Jun-15 14:56N 33°46' W 118°13'0 0.0
2018-Jun-15 14:20N 33°46' W 118°13'0 0.0
2018-Jun-15 13:59N 33°46' W 118°13'0 0.0
2018-Jun-15 13:25N 33°46' W 118°13'0 0.0
2018-Jun-15 12:59N 33°46' W 118°13'0 0.0
2018-Jun-15 12:26N 33°46' W 118°13'0 0.0
2018-Jun-15 11:55N 33°46' W 118°13'0 0.0
2018-Jun-15 11:23N 33°46' W 118°13'0 0.0
2018-Jun-15 10:56N 33°46' W 118°13'0 0.0
2018-Jun-15 10:29N 33°46' W 118°13'0 0.0
2018-Jun-15 09:59N 33°46' W 118°13'0 0.0
2018-Jun-15 09:29N 33°46' W 118°13'0 0.0
2018-Jun-15 08:53N 33°46' W 118°13'0 0.0
2018-Jun-15 08:29N 33°46' W 118°13'0 0.0
2018-Jun-15 07:59N 33°46' W 118°13'0 0.0
2018-Jun-15 07:23N 33°46' W 118°13'0 0.0
2018-Jun-15 06:55N 33°46' W 118°13'0 0.0
2018-Jun-15 06:28N 33°46' W 118°13'0 0.0
2018-Jun-15 05:59N 33°46' W 118°13'0 0.0
2018-Jun-15 05:29N 33°46' W 118°13'0 0.0
2018-Jun-15 04:59N 33°46' W 118°13'0 0.0
2018-Jun-15 04:23N 33°46' W 118°13'0 0.0
2018-Jun-15 03:59N 33°46' W 118°13'0 0.0
2018-Jun-15 03:28N 33°46' W 118°13'0 0.0
2018-Jun-15 02:58N 33°46' W 118°13'0 0.0
2018-Jun-15 02:28N 33°46' W 118°13'0 0.0
2018-Jun-15 01:58N 33°46' W 118°13'0 0.0
2018-Jun-15 01:28N 33°46' W 118°13'0 0.0
2018-Jun-15 00:58N 33°46' W 118°13'0 0.0
2018-Jun-15 00:29N 33°46' W 118°13'0 0.0
2018-Jun-14 23:58N 33°46' W 118°13'0 0.0
2018-Jun-14 23:29N 33°46' W 118°13'0 0.0
2018-Jun-14 22:59N 33°46' W 118°13'0 0.0
2018-Jun-14 22:26N 33°46' W 118°13'0 0.0
2018-Jun-14 21:58N 33°46' W 118°13'0 0.1
2018-Jun-14 21:25N 33°46' W 118°13'0 0.1
2018-Jun-14 20:58N 33°46' W 118°13'0 0.0
2018-Jun-14 20:28N 33°46' W 118°13'0 0.0
2018-Jun-14 19:58N 33°46' W 118°13'0 0.0
2018-Jun-14 19:28N 33°46' W 118°13'0 0.0
2018-Jun-14 18:59N 33°46' W 118°13'0 0.0
2018-Jun-14 18:28N 33°46' W 118°13'0 0.0
2018-Jun-14 17:58N 33°46' W 118°13'0 0.0
2018-Jun-14 17:29N 33°46' W 118°13'0 0.0
2018-Jun-14 16:55N 33°46' W 118°13'0 0.0
2018-Jun-14 16:25N 33°46' W 118°13'0 0.0
2018-Jun-14 15:58N 33°46' W 118°13'0 0.0
2018-Jun-14 15:19N 33°46' W 118°13'0 0.0
2018-Jun-14 14:55N 33°46' W 118°13'0 0.0
2018-Jun-14 14:28N 33°46' W 118°13'0 0.0
2018-Jun-14 13:58N 33°46' W 118°13'0 0.0
2018-Jun-14 13:25N 33°46' W 118°13'0 0.0
2018-Jun-14 12:58N 33°46' W 118°13'0 0.0
2018-Jun-14 12:29N 33°46' W 118°13'0 0.0
2018-Jun-14 11:52N 33°46' W 118°13'0 0.0
2018-Jun-14 11:28N 33°46' W 118°13'0 0.0
2018-Jun-14 10:55N 33°46' W 118°13'0 0.0
2018-Jun-14 10:22N 33°46' W 118°13'0 0.0
2018-Jun-14 09:43N 33°46' W 118°13'0 0.0
2018-Jun-14 09:28N 33°46' W 118°13'0 0.0
2018-Jun-14 08:58N 33°46' W 118°13'0 0.0
2018-Jun-14 08:10N 33°46' W 118°13'0 0.0
2018-Jun-14 07:49N 33°46' W 118°13'0 0.0
2018-Jun-14 07:22N 33°46' W 118°13'0 0.0
2018-Jun-14 06:58N 33°46' W 118°13'0 0.0
2018-Jun-14 06:28N 33°46' W 118°13'0 0.0
2018-Jun-14 05:58N 33°46' W 118°13'0 0.0
2018-Jun-14 05:28N 33°46' W 118°13'0 0.0
2018-Jun-14 04:55N 33°46' W 118°13'0 0.0
2018-Jun-14 04:25N 33°46' W 118°13'0 0.0
2018-Jun-14 03:58N 33°46' W 118°13'0 0.0
2018-Jun-14 03:22N 33°46' W 118°13'0 0.0
2018-Jun-14 02:58N 33°46' W 118°13'0 0.0
2018-Jun-14 02:28N 33°46' W 118°13'0 0.0
2018-Jun-14 01:55N 33°46' W 118°13'0 0.0
2018-Jun-14 01:16N 33°46' W 118°13'0 0.0
2018-Jun-14 00:58N 33°46' W 118°13'0 0.0
2018-Jun-14 00:28N 33°46' W 118°13'0 0.0
2018-Jun-13 23:58N 33°46' W 118°13'0 0.0
2018-Jun-13 23:16N 33°46' W 118°13'0 0.0
2018-Jun-13 22:58N 33°46' W 118°13'0 0.0
2018-Jun-13 22:22N 33°46' W 118°13'0 0.0
2018-Jun-13 21:55N 33°46' W 118°13'0 0.0
2018-Jun-13 21:22N 33°46' W 118°13'0 0.0
2018-Jun-13 20:58N 33°46' W 118°13'0 0.0
2018-Jun-13 20:28N 33°46' W 118°13'0 0.0
2018-Jun-13 19:58N 33°46' W 118°13'0 0.0
2018-Jun-13 19:16N 33°46' W 118°13'0 0.0
2018-Jun-13 18:58N 33°46' W 118°13'1 1.3
2018-Jun-13 18:30N 33°46' W 118°13'1 2.0
2018-Jun-13 17:58N 33°45' W 118°13'0 0.0
2018-Jun-13 17:25N 33°45' W 118°13'0 0.0
2018-Jun-13 16:55N 33°45' W 118°13'0 0.0
2018-Jun-13 16:28N 33°45' W 118°13'0 0.0
2018-Jun-13 15:58N 33°45' W 118°13'0 0.4
2018-Jun-13 15:30N 33°45' W 118°13'2 3.3
2018-Jun-13 15:00N 33°46' W 118°13'0 0.0
2018-Jun-12 18:54N 33°46' W 118°13'2 4.6
2018-Jun-12 18:30N 33°44' W 118°12'0 0.6
2018-Jun-12 17:48N 33°45' W 118°13'0 0.0
2018-Jun-12 17:30N 33°45' W 118°13'0 0.0
2018-Jun-12 16:57N 33°45' W 118°13'  

Dump ship's entire track history